Time;durP1;ratioP1;P1;durP2;ratioP2;P2;SDS_P1;SDS_P2;PMS_P1;PMS_P2;Temp;Humidity;BMP_temperature;BMP_pressure;BME280_temperature;BME280_humidity;BME280_pressure;Samples;Min_cycle;Max_cycle;Signal;HPM_P1;HPM_P2
2021/12/03 00:00:20;;;;;;;;;73.75;62.25;;;;;;;;6415550;22;8851;-79
2021/12/03 00:02:45;;;;;;;;;71.75;60.50;;;;;;;;6415504;22;8740;-78
2021/12/03 00:05:10;;;;;;;;;58.00;49.67;;;;;;;;6415757;22;8749;-77
2021/12/03 00:07:39;;;;;;;;;64.00;54.00;;;;;;;;6385884;22;8818;-77
2021/12/03 00:10:07;;;;;;;;;69.50;57.00;;;;;;;;6415618;22;8741;-77
2021/12/03 00:12:32;;;;;;;;;72.75;61.00;;;;;;;;6415102;22;8757;-77
2021/12/03 00:14:58;;;;;;;;;62.67;53.67;;;;;;;;6415819;22;8753;-77
2021/12/03 00:17:23;;;;;;;;;63.33;52.00;;;;;;;;6415188;22;10451;-77
2021/12/03 00:19:48;;;;;;;;;64.67;53.00;;;;;;;;6415280;22;11533;-77
2021/12/03 00:22:14;;;;;;;;;73.33;60.67;;;;;;;;6414993;22;11576;-77
2021/12/03 00:24:39;;;;;;;;;65.25;54.25;;;;;;;;6414928;22;11533;-78
2021/12/03 00:27:05;;;;;;;;;55.00;48.75;;;;;;;;6416752;22;8741;-78
2021/12/03 00:29:30;;;;;;;;;32.50;30.75;;;;;;;;6416271;22;8805;-78
2021/12/03 00:31:56;;;;;;;;;57.33;49.33;;;;;;;;6417295;22;8721;-77
2021/12/03 00:34:21;;;;;;;;;39.00;37.33;;;;;;;;6387708;22;8789;-78
2021/12/03 00:36:46;;;;;;;;;60.33;49.00;;;;;;;;6415963;22;8773;-78
2021/12/03 00:39:12;;;;;;;;;53.33;45.67;;;;;;;;6416604;22;8756;-78
2021/12/03 00:41:45;;;;;;;;;60.50;49.25;;;;;;;;6416060;22;8764;-78
2021/12/03 00:44:11;;;;;;;;;60.00;51.75;;;;;;;;6387814;22;8810;-78
2021/12/03 00:46:36;;;;;;;;;58.00;49.00;;;;;;;;6387232;22;8776;-78
2021/12/03 00:49:01;;;;;;;;;66.00;56.67;;;;;;;;6416533;22;8777;-78
2021/12/03 00:51:28;;;;;;;;;70.67;59.33;;;;;;;;6416223;22;8760;-78
2021/12/03 00:53:53;;;;;;;;;81.00;66.50;;;;;;;;6416354;22;11439;-78
2021/12/03 00:56:19;;;;;;;;;86.50;70.00;;;;;;;;6387481;22;8780;-78
2021/12/03 00:58:45;;;;;;;;;81.00;67.25;;;;;;;;6415446;22;8783;-78
2021/12/03 01:01:10;;;;;;;;;83.00;66.00;;;;;;;;6416750;22;8767;-78
2021/12/03 01:03:36;;;;;;;;;74.50;62.25;;;;;;;;6386977;22;8807;-77
2021/12/03 01:06:02;;;;;;;;;86.50;72.50;;;;;;;;6387530;22;8775;-78
2021/12/03 01:08:28;;;;;;;;;82.50;69.25;;;;;;;;6415801;22;8781;-78
2021/12/03 01:10:53;;;;;;;;;86.00;71.67;;;;;;;;6416669;22;8878;-78
2021/12/03 01:13:18;;;;;;;;;90.67;75.33;;;;;;;;6416483;22;9517;-78
2021/12/03 01:15:44;;;;;;;;;82.33;68.33;;;;;;;;6416280;22;8780;-78
2021/12/03 01:18:10;;;;;;;;;76.25;62.75;;;;;;;;6416705;22;8875;-78
2021/12/03 01:20:36;;;;;;;;;74.50;62.25;;;;;;;;6415764;22;8724;-78
2021/12/03 01:23:03;;;;;;;;;86.50;70.00;;;;;;;;6416206;22;8693;-78
2021/12/03 01:25:29;;;;;;;;;71.75;60.25;;;;;;;;6415944;22;9627;-78
2021/12/03 01:27:55;;;;;;;;;71.67;60.00;;;;;;;;6416221;22;8777;-77
2021/12/03 01:30:22;;;;;;;;;70.00;58.20;;;;;;;;6416779;22;8721;-78
2021/12/03 01:32:48;;;;;;;;;66.25;52.75;;;;;;;;6416032;22;8733;-78
2021/12/03 01:35:14;;;;;;;;;60.25;50.75;;;;;;;;6387203;22;8780;-77
2021/12/03 01:37:42;;;;;;;;;57.80;48.00;;;;;;;;6414656;22;9026;-78
2021/12/03 01:40:09;;;;;;;;;55.75;49.25;;;;;;;;6416555;22;8733;-78
2021/12/03 01:42:37;;;;;;;;;56.25;49.25;;;;;;;;6416332;22;8820;-78
2021/12/03 01:45:02;;;;;;;;;39.00;39.00;;;;;;;;6416964;22;8728;-78
2021/12/03 01:47:27;;;;;;;;;43.75;42.00;;;;;;;;6416234;22;8781;-78
2021/12/03 01:49:53;;;;;;;;;60.33;50.67;;;;;;;;6416825;22;9539;-80
2021/12/03 01:52:18;;;;;;;;;64.25;53.25;;;;;;;;6416555;22;11516;-78
2021/12/03 01:54:43;;;;;;;;;23.67;22.00;;;;;;;;6416054;22;8879;-78
2021/12/03 01:57:09;;;;;;;;;71.50;59.25;;;;;;;;6416477;22;8804;-78
2021/12/03 01:59:34;;;;;;;;;50.00;44.75;;;;;;;;6416369;22;8740;-78
2021/12/03 02:02:00;;;;;;;;;68.00;57.25;;;;;;;;6416397;22;8741;-78
2021/12/03 02:04:25;;;;;;;;;67.25;57.25;;;;;;;;6416132;22;8733;-78
2021/12/03 02:06:51;;;;;;;;;54.75;47.00;;;;;;;;6416004;22;8748;-78
2021/12/03 02:09:16;;;;;;;;;68.25;58.75;;;;;;;;6416340;22;8875;-78
2021/12/03 02:11:42;;;;;;;;;72.25;60.50;;;;;;;;6387344;22;8775;-78
2021/12/03 02:14:07;;;;;;;;;68.25;57.25;;;;;;;;6416535;22;8789;-78
2021/12/03 02:16:33;;;;;;;;;66.50;54.00;;;;;;;;6416177;22;8852;-78
2021/12/03 02:18:58;;;;;;;;;73.25;58.50;;;;;;;;6416368;22;8745;-78
2021/12/03 02:21:23;;;;;;;;;59.25;51.00;;;;;;;;6415953;22;9871;-78
2021/12/03 02:23:49;;;;;;;;;57.75;49.00;;;;;;;;6415853;22;8736;-78
2021/12/03 02:26:15;;;;;;;;;73.00;57.00;;;;;;;;6416355;22;8833;-78
2021/12/03 02:28:45;;;;;;;;;75.00;62.50;;;;;;;;6416271;22;8749;-78
2021/12/03 02:31:12;;;;;;;;;74.25;61.00;;;;;;;;6416569;22;9631;-78
2021/12/03 02:33:37;;;;;;;;;77.25;63.25;;;;;;;;6416192;22;8737;-78
2021/12/03 02:36:04;;;;;;;;;68.50;58.50;;;;;;;;6416340;22;8768;-78
2021/12/03 02:38:29;;;;;;;;;73.25;60.25;;;;;;;;6415876;22;8717;-78
2021/12/03 02:40:55;;;;;;;;;80.00;65.33;;;;;;;;6387118;22;8837;-78
2021/12/03 02:43:22;;;;;;;;;64.50;55.50;;;;;;;;6416301;22;11496;-78
2021/12/03 02:45:50;;;;;;;;;72.75;61.25;;;;;;;;6387228;22;9655;-78
2021/12/03 02:48:16;;;;;;;;;81.25;65.25;;;;;;;;6415927;22;8759;-78
2021/12/03 02:50:41;;;;;;;;;77.25;64.25;;;;;;;;6415355;22;8744;-78
2021/12/03 02:53:06;;;;;;;;;74.00;62.00;;;;;;;;6416189;22;8764;-78
2021/12/03 02:55:32;;;;;;;;;76.00;62.00;;;;;;;;6416064;22;8751;-78
2021/12/03 02:57:57;;;;;;;;;77.25;62.25;;;;;;;;6386762;22;11540;-78
2021/12/03 03:00:24;;;;;;;;;79.25;63.50;;;;;;;;6416166;22;8732;-78
2021/12/03 03:02:50;;;;;;;;;74.00;59.75;;;;;;;;6416488;22;8744;-78
2021/12/03 03:05:16;;;;;;;;;75.50;62.75;;;;;;;;6416034;22;8776;-78
2021/12/03 03:07:41;;;;;;;;;77.00;62.25;;;;;;;;6415840;22;8753;-78
2021/12/03 03:10:10;;;;;;;;;73.00;60.50;;;;;;;;6416230;22;8749;-78
2021/12/03 03:12:38;;;;;;;;;66.50;53.50;;;;;;;;6415802;22;8721;-78
2021/12/03 03:15:04;;;;;;;;;72.25;60.75;;;;;;;;6387183;22;8721;-78
2021/12/03 03:17:30;;;;;;;;;77.75;62.75;;;;;;;;6415833;22;8722;-78
2021/12/03 03:19:56;;;;;;;;;84.25;69.00;;;;;;;;6416047;22;8814;-78
2021/12/03 03:22:22;;;;;;;;;78.00;63.25;;;;;;;;6415371;22;8746;-78
2021/12/03 03:24:49;;;;;;;;;67.75;55.00;;;;;;;;6415948;22;8769;-78
2021/12/03 03:27:14;;;;;;;;;82.67;67.00;;;;;;;;6415972;22;8725;-78
2021/12/03 03:29:42;;;;;;;;;82.75;64.75;;;;;;;;6415763;22;8773;-78
2021/12/03 03:32:08;;;;;;;;;82.75;68.75;;;;;;;;6416003;22;8717;-78
2021/12/03 03:34:33;;;;;;;;;75.25;62.75;;;;;;;;6415399;22;8749;-78
2021/12/03 03:36:59;;;;;;;;;74.50;60.50;;;;;;;;6386363;22;8841;-78
2021/12/03 03:39:24;;;;;;;;;75.33;62.33;;;;;;;;6415205;22;8784;-78
2021/12/03 03:41:50;;;;;;;;;75.50;62.50;;;;;;;;6415947;22;8744;-78
2021/12/03 03:44:16;;;;;;;;;76.75;63.25;;;;;;;;6415567;22;8753;-78
2021/12/03 03:46:41;;;;;;;;;77.75;63.50;;;;;;;;6415960;22;8893;-78
2021/12/03 03:49:07;;;;;;;;;80.00;64.50;;;;;;;;6416120;22;8776;-78
2021/12/03 03:51:32;;;;;;;;;71.50;59.25;;;;;;;;6415145;22;8839;-78
2021/12/03 03:53:58;;;;;;;;;66.00;56.00;;;;;;;;6416213;22;8852;-78
2021/12/03 03:56:23;;;;;;;;;77.00;63.00;;;;;;;;6415693;22;8755;-78
2021/12/03 03:58:49;;;;;;;;;67.00;55.75;;;;;;;;6415377;22;8973;-78
2021/12/03 04:01:15;;;;;;;;;75.33;62.00;;;;;;;;6387314;22;8850;-78
2021/12/03 04:03:45;;;;;;;;;75.50;62.50;;;;;;;;6416753;22;11418;-78
2021/12/03 04:06:11;;;;;;;;;73.75;61.25;;;;;;;;6417536;22;8906;-78
2021/12/03 04:08:36;;;;;;;;;80.00;64.75;;;;;;;;6416291;22;8861;-78
2021/12/03 04:11:03;;;;;;;;;79.67;64.00;;;;;;;;6416909;22;8786;-78
2021/12/03 04:13:28;;;;;;;;;70.25;58.50;;;;;;;;6416264;22;12331;-78
2021/12/03 04:15:53;;;;;;;;;78.25;65.25;;;;;;;;6417395;22;8741;-78
2021/12/03 04:18:19;;;;;;;;;68.00;57.33;;;;;;;;6388055;22;8857;-78
2021/12/03 04:20:45;;;;;;;;;76.75;62.50;;;;;;;;6416890;22;12210;-78
2021/12/03 04:23:16;;;;;;;;;69.25;58.75;;;;;;;;6416862;22;8800;-78
2021/12/03 04:25:41;;;;;;;;;74.00;61.25;;;;;;;;6387785;22;8809;-78
2021/12/03 04:28:07;;;;;;;;;71.33;59.67;;;;;;;;6388024;22;8892;-78
2021/12/03 04:30:32;;;;;;;;;76.33;62.00;;;;;;;;6416426;22;8838;-78
2021/12/03 04:32:58;;;;;;;;;71.33;60.33;;;;;;;;6416911;22;10970;-78
2021/12/03 04:35:24;;;;;;;;;67.75;56.00;;;;;;;;6416545;22;8745;-78
2021/12/03 04:37:50;;;;;;;;;65.75;52.00;;;;;;;;6416868;22;8721;-78
2021/12/03 04:40:16;;;;;;;;;79.25;66.00;;;;;;;;6416562;22;9603;-78
2021/12/03 04:42:41;;;;;;;;;74.00;58.75;;;;;;;;6387583;22;8729;-78
2021/12/03 04:45:08;;;;;;;;;78.33;63.33;;;;;;;;6417068;22;8839;-78
2021/12/03 04:47:33;;;;;;;;;78.00;62.25;;;;;;;;6416090;22;11139;-78
2021/12/03 04:49:58;;;;;;;;;79.75;63.50;;;;;;;;6387509;22;8786;-78
2021/12/03 04:52:25;;;;;;;;;84.75;68.00;;;;;;;;6416202;22;8757;-78
2021/12/03 04:54:50;;;;;;;;;66.25;54.75;;;;;;;;6417146;22;8769;-78
2021/12/03 04:57:15;;;;;;;;;72.25;60.25;;;;;;;;6386880;22;9356;-78
2021/12/03 04:59:41;;;;;;;;;80.67;65.33;;;;;;;;6416396;22;8767;-78
2021/12/03 05:02:06;;;;;;;;;65.00;55.33;;;;;;;;6416692;22;9586;-78
2021/12/03 05:04:37;;;;;;;;;81.50;66.50;;;;;;;;6416288;22;8848;-78
2021/12/03 05:07:27;;;;;;;;;66.50;55.25;;;;;;;;6416180;22;8739;-78
2021/12/03 05:09:51;;;;;;;;;54.75;46.75;;;;;;;;6415466;22;8768;-78
2021/12/03 05:12:16;;;;;;;;;72.67;60.33;;;;;;;;6416116;22;8729;-78
2021/12/03 05:14:42;;;;;;;;;87.00;71.00;;;;;;;;6387196;22;9461;-78
2021/12/03 05:17:07;;;;;;;;;66.50;55.75;;;;;;;;6416584;22;8729;-77
2021/12/03 05:19:32;;;;;;;;;61.25;51.25;;;;;;;;6387017;22;8748;-78
2021/12/03 05:21:58;;;;;;;;;82.67;65.33;;;;;;;;6416457;22;8769;-78
2021/12/03 05:24:23;;;;;;;;;72.67;61.67;;;;;;;;6416594;22;10341;-78
2021/12/03 05:26:48;;;;;;;;;45.33;40.00;;;;;;;;6416470;22;11565;-78
2021/12/03 05:29:14;;;;;;;;;56.00;47.50;;;;;;;;6387067;22;8777;-78
2021/12/03 05:31:40;;;;;;;;;56.50;47.25;;;;;;;;6416488;22;8764;-78
2021/12/03 05:34:09;;;;;;;;;47.75;42.50;;;;;;;;6416911;22;8741;-78
2021/12/03 05:36:35;;;;;;;;;65.00;52.50;;;;;;;;6415372;22;8736;-78
2021/12/03 05:39:00;;;;;;;;;66.25;56.50;;;;;;;;6416265;22;8830;-78
2021/12/03 05:41:25;;;;;;;;;72.00;60.25;;;;;;;;6415568;22;8812;-78
2021/12/03 05:43:51;;;;;;;;;69.67;59.33;;;;;;;;6416315;22;8748;-78
2021/12/03 05:46:16;;;;;;;;;24.00;22.33;;;;;;;;6416288;22;9512;-78
2021/12/03 05:48:41;;;;;;;;;74.67;61.67;;;;;;;;6415920;22;8851;-78
2021/12/03 05:51:07;;;;;;;;;81.50;67.00;;;;;;;;6416178;22;11531;-78
2021/12/03 05:53:33;;;;;;;;;70.00;57.33;;;;;;;;6386895;22;8779;-77
2021/12/03 05:55:58;;;;;;;;;60.25;48.75;;;;;;;;6416110;22;12355;-78
2021/12/03 05:58:24;;;;;;;;;82.75;67.25;;;;;;;;6415804;22;8852;-78
2021/12/03 06:00:50;;;;;;;;;77.50;60.50;;;;;;;;6416404;22;8804;-78
2021/12/03 06:03:15;;;;;;;;;74.00;61.25;;;;;;;;6416576;22;8721;-78
2021/12/03 06:05:40;;;;;;;;;72.50;60.00;;;;;;;;6415983;22;8729;-78
2021/12/03 06:08:07;;;;;;;;;65.00;54.00;;;;;;;;6416051;22;8764;-78
2021/12/03 06:10:33;;;;;;;;;60.50;48.00;;;;;;;;6415411;22;8754;-78
2021/12/03 06:12:58;;;;;;;;;59.00;50.00;;;;;;;;6415922;22;8837;-78
2021/12/03 06:15:24;;;;;;;;;58.00;50.25;;;;;;;;6416254;22;8741;-78
2021/12/03 06:17:50;;;;;;;;;68.25;56.00;;;;;;;;6387348;22;8757;-78
2021/12/03 06:20:16;;;;;;;;;76.00;63.50;;;;;;;;6386834;22;8732;-78
2021/12/03 06:22:42;;;;;;;;;63.00;54.00;;;;;;;;6415861;22;8720;-78
2021/12/03 06:25:09;;;;;;;;;74.75;61.50;;;;;;;;6416085;22;8737;-76
2021/12/03 06:27:34;;;;;;;;;65.25;55.50;;;;;;;;6416195;22;8736;-78
2021/12/03 06:30:00;;;;;;;;;74.75;60.75;;;;;;;;6416307;22;8918;-77
2021/12/03 06:32:25;;;;;;;;;70.75;58.25;;;;;;;;6387064;22;8757;-78
2021/12/03 06:34:51;;;;;;;;;72.25;59.75;;;;;;;;6416473;22;8737;-78
2021/12/03 06:37:16;;;;;;;;;71.50;60.00;;;;;;;;6387271;22;8760;-77
2021/12/03 06:39:42;;;;;;;;;70.50;59.75;;;;;;;;6416194;22;8757;-78
2021/12/03 06:42:07;;;;;;;;;72.75;61.25;;;;;;;;6416217;22;8879;-78
2021/12/03 06:44:32;;;;;;;;;72.50;60.50;;;;;;;;6415872;22;8732;-78
2021/12/03 06:47:00;;;;;;;;;79.75;63.50;;;;;;;;6416217;22;8889;-77
2021/12/03 06:49:28;;;;;;;;;79.50;63.50;;;;;;;;6415730;22;8776;-77
2021/12/03 06:51:59;;;;;;;;;58.50;48.50;;;;;;;;6416008;22;8834;-77
2021/12/03 06:54:26;;;;;;;;;70.00;59.50;;;;;;;;6415899;22;8777;-76
2021/12/03 06:56:52;;;;;;;;;66.00;56.75;;;;;;;;6416138;22;8725;-76
2021/12/03 06:59:19;;;;;;;;;75.25;61.50;;;;;;;;6415501;22;8725;-76
2021/12/03 07:01:44;;;;;;;;;76.00;60.50;;;;;;;;6415940;22;8717;-76
2021/12/03 07:04:10;;;;;;;;;62.25;52.50;;;;;;;;6416253;22;8806;-76
2021/12/03 07:06:52;;;;;;;;;76.50;64.25;;;;;;;;6386632;22;8836;-79
2021/12/03 07:09:17;;;;;;;;;71.75;59.00;;;;;;;;6415902;22;8737;-77
2021/12/03 07:11:43;;;;;;;;;76.00;63.00;;;;;;;;6387097;22;8806;-77
2021/12/03 07:14:08;;;;;;;;;66.25;55.50;;;;;;;;6387197;22;8753;-77
2021/12/03 07:16:34;;;;;;;;;83.25;69.00;;;;;;;;6415905;22;8756;-77
2021/12/03 07:18:59;;;;;;;;;72.00;60.75;;;;;;;;6387209;22;8741;-77
2021/12/03 07:21:25;;;;;;;;;68.25;58.00;;;;;;;;6385747;22;8725;-77
2021/12/03 07:23:51;;;;;;;;;81.75;66.75;;;;;;;;6416018;22;8752;-77
2021/12/03 07:26:20;;;;;;;;;90.00;77.60;;;;;;;;6415697;22;11495;-77
2021/12/03 07:28:46;;;;;;;;;86.20;71.80;;;;;;;;6415945;22;8748;-77
2021/12/03 07:31:11;;;;;;;;;82.40;68.40;;;;;;;;6416188;22;8733;-76
2021/12/03 07:33:37;;;;;;;;;92.00;81.20;;;;;;;;6386665;22;8788;-76
2021/12/03 07:36:05;;;;;;;;;101.00;92.80;;;;;;;;6415639;22;9468;-76
2021/12/03 07:38:30;;;;;;;;;100.00;91.00;;;;;;;;6415065;22;8756;-76
2021/12/03 07:40:55;;;;;;;;;94.00;82.75;;;;;;;;6387056;22;8745;-77
2021/12/03 07:43:21;;;;;;;;;100.00;91.40;;;;;;;;6415823;22;8721;-76
2021/12/03 07:45:47;;;;;;;;;106.20;102.40;;;;;;;;6416027;22;8733;-77
2021/12/03 07:48:13;;;;;;;;;97.60;88.20;;;;;;;;6416056;22;8737;-77
2021/12/03 07:50:39;;;;;;;;;95.20;84.00;;;;;;;;6415892;22;8918;-76
2021/12/03 07:53:05;;;;;;;;;95.80;84.00;;;;;;;;6386618;22;8854;-76
2021/12/03 07:55:41;;;;;;;;;101.00;95.25;;;;;;;;6411354;22;8744;-77
2021/12/03 07:58:07;;;;;;;;;99.75;92.00;;;;;;;;6410445;22;9635;-77
2021/12/03 08:00:32;;;;;;;;;92.00;77.75;;;;;;;;6413062;22;8729;-77
2021/12/03 08:02:58;;;;;;;;;96.00;84.67;;;;;;;;6415621;22;8737;-77
2021/12/03 08:05:23;;;;;;;;;91.75;73.25;;;;;;;;6414964;22;8729;-77
2021/12/03 08:07:50;;;;;;;;;99.25;90.75;;;;;;;;6415525;22;8765;-78
2021/12/03 08:10:27;;;;;;;;;74.75;63.25;;;;;;;;6415545;22;8714;-77
2021/12/03 08:12:56;;;;;;;;;89.25;73.50;;;;;;;;6415056;22;8772;-77
2021/12/03 08:15:21;;;;;;;;;74.20;61.20;;;;;;;;6415181;22;8717;-79
2021/12/03 08:17:49;;;;;;;;;80.67;65.33;;;;;;;;6415306;22;8725;-77
2021/12/03 08:20:14;;;;;;;;;79.00;65.25;;;;;;;;6415687;22;8665;-79
2021/12/03 08:22:40;;;;;;;;;74.50;61.75;;;;;;;;6414894;22;9798;-77
2021/12/03 08:25:06;;;;;;;;;60.75;50.25;;;;;;;;6415661;22;8749;-76
2021/12/03 08:27:31;;;;;;;;;58.50;50.75;;;;;;;;6414558;22;9496;-76
2021/12/03 08:29:56;;;;;;;;;70.50;59.00;;;;;;;;6386576;22;8773;-77
2021/12/03 08:32:22;;;;;;;;;61.00;50.67;;;;;;;;6415055;22;8891;-77
2021/12/03 08:34:47;;;;;;;;;56.25;48.25;;;;;;;;6415255;22;8749;-77
2021/12/03 08:37:12;;;;;;;;;52.00;46.25;;;;;;;;6414552;22;8828;-77
2021/12/03 08:39:38;;;;;;;;;72.33;59.67;;;;;;;;6415056;22;8736;-77
2021/12/03 08:42:05;;;;;;;;;65.00;53.25;;;;;;;;6415625;22;11407;-77
2021/12/03 08:44:31;;;;;;;;;63.50;54.50;;;;;;;;6414811;22;8654;-77
2021/12/03 08:47:00;;;;;;;;;60.00;48.75;;;;;;;;6386385;22;9159;-77
2021/12/03 08:52:09;;;;;;;;;70.00;58.00;;;;;;;;6416087;22;8829;-76
2021/12/03 08:54:53;;;;;;;;;67.50;57.00;;;;;;;;6415928;22;8752;-76
2021/12/03 08:57:20;;;;;;;;;65.75;54.75;;;;;;;;6415657;22;8737;-76
2021/12/03 08:59:45;;;;;;;;;51.75;45.25;;;;;;;;6416260;22;8705;-76
2021/12/03 09:02:11;;;;;;;;;61.25;52.00;;;;;;;;6415029;22;8759;-76
2021/12/03 09:04:36;;;;;;;;;70.33;58.67;;;;;;;;6414648;22;8745;-76
2021/12/03 09:07:02;;;;;;;;;73.75;62.00;;;;;;;;6416271;22;10914;-76
2021/12/03 09:09:28;;;;;;;;;70.00;58.50;;;;;;;;6387004;22;8725;-77
2021/12/03 09:11:54;;;;;;;;;65.25;53.75;;;;;;;;6416937;22;8772;-81
2021/12/03 09:14:36;;;;;;;;;64.00;55.00;;;;;;;;6387710;22;8729;-82
2021/12/03 09:20:16;;;;;;;;;65.75;55.25;;;;;;;;6256236;22;8835;-79
2021/12/03 09:22:45;;;;;;;;;66.25;55.00;;;;;;;;6397403;22;8673;-81
2021/12/03 09:25:15;;;;;;;;;73.00;59.25;;;;;;;;6416681;22;8729;-83
2021/12/03 09:27:41;;;;;;;;;59.75;51.50;;;;;;;;6416560;22;8708;-85
2021/12/03 09:30:08;;;;;;;;;75.00;62.00;;;;;;;;6416665;22;9468;-82
2021/12/03 09:32:36;;;;;;;;;63.00;53.25;;;;;;;;6416404;22;8705;-84
2021/12/03 09:35:03;;;;;;;;;63.75;53.25;;;;;;;;6388323;22;8748;-85
2021/12/03 09:37:28;;;;;;;;;67.00;56.75;;;;;;;;6416000;22;8741;-82
2021/12/03 09:39:55;;;;;;;;;64.50;54.50;;;;;;;;6418552;22;8747;-82
2021/12/03 09:42:21;;;;;;;;;71.50;58.25;;;;;;;;6415765;22;8759;-83
2021/12/03 09:44:49;;;;;;;;;66.00;56.25;;;;;;;;6415032;22;8814;-83
2021/12/03 09:47:15;;;;;;;;;91.20;80.80;;;;;;;;6415530;22;8693;-84
2021/12/03 09:49:41;;;;;;;;;71.00;58.25;;;;;;;;6407115;22;8788;-80
2021/12/03 10:19:35;;;;;;;;;67.50;56.75;;;;;;;;6226049;22;8773;-82
2021/12/03 10:43:17;;;;;;;;;72.75;59.25;;;;;;;;6383511;22;11370;-85
2021/12/03 10:46:11;;;;;;;;;61.50;52.75;;;;;;;;6383792;22;8743;-85
2021/12/03 10:51:42;;;;;;;;;80.20;66.60;;;;;;;;6382704;22;8742;-85
2021/12/03 12:41:02;;;;;;;;;95.75;84.25;;;;;;;;6416115;22;8685;-80
2021/12/03 13:18:49;;;;;;;;;108.25;108.25;;;;;;;;6415733;22;8748;-80
2021/12/03 13:37:01;;;;;;;;;114.80;113.00;;;;;;;;6295241;22;8771;-83
2021/12/03 14:25:02;;;;;;;;;109.00;107.80;;;;;;;;6414822;22;8729;-81
2021/12/03 14:40:10;;;;;;;;;116.60;115.80;;;;;;;;6285594;22;9712;-82
2021/12/03 14:43:02;;;;;;;;;113.00;112.40;;;;;;;;6273781;22;8769;-82
2021/12/03 14:45:13;;;;;;;;;100.00;94.60;;;;;;;;6379073;22;8768;-83
2021/12/03 14:55:03;;;;;;;;;112.25;112.25;;;;;;;;6415726;22;8839;-82
2021/12/03 14:57:56;;;;;;;;;117.00;116.20;;;;;;;;6414911;22;8741;-91
2021/12/03 16:46:20;;;;;;;;;109.00;109.00;;;;;;;;6226810;23;8747;-84
2021/12/03 17:13:47;;;;;;;;;122.60;121.20;;;;;;;;6391398;22;8860;-82
2021/12/03 17:58:39;;;;;;;;;;;;;;;;;;;;;
2021/12/03 18:01:50;;;;;;;;;113.40;112.60;;;;;;;;6414265;22;35465;-84
2021/12/03 18:55:39;;;;;;;;;130.80;129.40;;;;;;;;6412172;22;8749;-84
2021/12/03 18:58:05;;;;;;;;;163.83;163.83;;;;;;;;6386166;22;8737;-85
2021/12/03 19:00:33;;;;;;;;;167.50;166.50;;;;;;;;6414854;22;8957;-85
2021/12/03 19:03:21;;;;;;;;;145.20;145.20;;;;;;;;6414592;22;8771;-85
2021/12/03 19:16:07;;;;;;;;;;;;;;;;;;;;;
2021/12/03 19:30:53;;;;;;;;;182.17;180.17;;;;;;;;6206720;22;9229;-82
2021/12/03 19:36:19;;;;;;;;;171.60;171.60;;;;;;;;6396097;22;8725;-81
2021/12/03 19:47:58;;;;;;;;;179.67;179.50;;;;;;;;6299264;22;8728;-81
2021/12/03 19:50:40;;;;;;;;;179.80;179.60;;;;;;;;6385194;22;9627;-82
2021/12/03 19:55:56;;;;;;;;;186.50;186.00;;;;;;;;6414700;22;8849;-81
2021/12/03 20:01:10;;;;;;;;;175.17;175.00;;;;;;;;6399290;22;8729;-82
2021/12/03 20:03:36;;;;;;;;;198.80;197.40;;;;;;;;6413868;22;8845;-81
2021/12/03 20:19:05;;;;;;;;;;;;;;;;;;;;;
2021/12/03 20:21:30;;;;;;;;;198.83;197.17;;;;;;;;6409939;22;8744;-81
2021/12/03 20:24:08;;;;;;;;;223.40;223.40;;;;;;;;6414729;22;8725;-82
2021/12/03 20:29:49;;;;;;;;;233.83;231.50;;;;;;;;6352660;22;8749;-80
2021/12/03 20:32:32;;;;;;;;;;;;;;;;;;;;;
2021/12/03 20:37:55;;;;;;;;;220.80;220.80;;;;;;;;6392406;22;8828;-81
2021/12/03 20:40:29;;;;;;;;;217.33;217.33;;;;;;;;6414058;22;11388;-80
2021/12/03 20:43:08;;;;;;;;;217.50;215.17;;;;;;;;6385639;22;8751;-82
2021/12/03 20:52:30;;;;;;;;;233.00;233.00;;;;;;;;6272738;22;8722;-81
2021/12/03 20:59:41;;;;;;;;;227.50;227.50;;;;;;;;6415745;22;8717;-80
2021/12/03 21:10:23;;;;;;;;;216.50;216.50;;;;;;;;6415661;22;8741;-80
2021/12/03 21:12:51;;;;;;;;;220.40;220.40;;;;;;;;6415336;22;8701;-81
2021/12/03 21:15:25;;;;;;;;;210.60;209.60;;;;;;;;6415820;22;8713;-81
2021/12/03 21:20:54;;;;;;;;;213.67;213.67;;;;;;;;6415200;22;11528;-81
2021/12/03 21:23:22;;;;;;;;;204.40;204.20;;;;;;;;6387008;22;8741;-81
2021/12/03 21:25:52;;;;;;;;;207.00;205.17;;;;;;;;6415063;22;8794;-81
2021/12/03 21:28:31;;;;;;;;;214.00;213.00;;;;;;;;6415520;22;8751;-81
2021/12/03 21:31:04;;;;;;;;;214.00;213.60;;;;;;;;6386988;22;9433;-80
2021/12/03 21:41:21;;;;;;;;;207.33;206.67;;;;;;;;6415393;22;8717;-80
2021/12/03 21:43:55;;;;;;;;;210.17;210.17;;;;;;;;6415056;22;8717;-80
2021/12/03 21:46:33;;;;;;;;;227.00;224.67;;;;;;;;6415741;22;8741;-81
2021/12/03 21:49:05;;;;;;;;;215.67;215.67;;;;;;;;6415336;22;8745;-81
2021/12/03 21:51:30;;;;;;;;;212.00;209.83;;;;;;;;6415367;22;8736;-80
2021/12/03 21:54:01;;;;;;;;;215.20;214.80;;;;;;;;6386229;22;8765;-81
2021/12/03 21:56:27;;;;;;;;;204.17;203.00;;;;;;;;6415331;22;8717;-81
2021/12/03 21:58:52;;;;;;;;;208.20;206.40;;;;;;;;6415183;22;8746;-84
2021/12/03 22:01:21;;;;;;;;;220.60;220.60;;;;;;;;6415006;22;8729;-83
2021/12/03 22:03:47;;;;;;;;;212.60;212.40;;;;;;;;6414322;22;11533;-83
2021/12/03 22:06:25;;;;;;;;;;;;;;;;;;;;;
2021/12/03 22:09:00;;;;;;;;;210.83;209.17;;;;;;;;6414219;22;35336;-83
2021/12/03 22:11:36;;;;;;;;;214.50;213.83;;;;;;;;6416104;22;8736;-83
2021/12/03 22:14:03;;;;;;;;;211.00;209.60;;;;;;;;6386500;22;8828;-82
2021/12/03 22:19:35;;;;;;;;;196.50;196.50;;;;;;;;6387787;22;8721;-83
2021/12/03 22:22:02;;;;;;;;;203.25;202.75;;;;;;;;6415102;22;8721;-83
2021/12/03 22:24:28;;;;;;;;;209.17;209.17;;;;;;;;6415896;22;8843;-83
2021/12/03 22:26:53;;;;;;;;;203.40;203.00;;;;;;;;6386615;22;8773;-83
2021/12/03 22:29:18;;;;;;;;;212.40;210.00;;;;;;;;6415588;22;8757;-84
2021/12/03 22:31:44;;;;;;;;;216.20;213.00;;;;;;;;6415014;22;8761;-83
2021/12/03 22:34:09;;;;;;;;;199.25;199.25;;;;;;;;6385125;22;8761;-82
2021/12/03 22:36:34;;;;;;;;;192.00;192.00;;;;;;;;6414797;22;11925;-81
2021/12/03 22:39:00;;;;;;;;;206.00;204.40;;;;;;;;6415016;22;8753;-82
2021/12/03 22:41:25;;;;;;;;;209.60;208.20;;;;;;;;6386410;22;8784;-81
2021/12/03 22:43:53;;;;;;;;;211.00;210.80;;;;;;;;6415290;22;9557;-81
2021/12/03 22:46:34;;;;;;;;;199.80;199.80;;;;;;;;6415472;22;11418;-81
2021/12/03 22:49:33;;;;;;;;;213.33;212.50;;;;;;;;6415254;22;8757;-80
2021/12/03 22:54:17;;;;;;;;;190.17;190.17;;;;;;;;6414994;22;8721;-80
2021/12/03 22:56:43;;;;;;;;;183.80;183.80;;;;;;;;6415640;22;8669;-80
2021/12/03 22:59:09;;;;;;;;;176.67;176.67;;;;;;;;6415310;22;8776;-82
2021/12/03 23:02:15;;;;;;;;;157.20;157.20;;;;;;;;6416020;22;8830;-81
2021/12/03 23:04:46;;;;;;;;;144.50;144.50;;;;;;;;6382133;22;8763;-81
2021/12/03 23:07:13;;;;;;;;;163.33;163.33;;;;;;;;6382369;22;8736;-85
2021/12/03 23:09:39;;;;;;;;;153.50;153.50;;;;;;;;6384101;22;8732;-85
2021/12/03 23:12:06;;;;;;;;;94.25;87.25;;;;;;;;6383699;22;8704;-85
2021/12/03 23:14:31;;;;;;;;;178.40;178.40;;;;;;;;6384213;22;8696;-85
2021/12/03 23:16:58;;;;;;;;;66.00;56.00;;;;;;;;6383793;22;9514;-86
2021/12/03 23:19:25;;;;;;;;;75.60;68.60;;;;;;;;6383811;22;8839;-85
2021/12/03 23:21:51;;;;;;;;;75.25;65.50;;;;;;;;6354818;22;8929;-86
2021/12/03 23:24:17;;;;;;;;;53.25;46.50;;;;;;;;6383909;22;8709;-85
2021/12/03 23:26:42;;;;;;;;;55.00;47.75;;;;;;;;6355571;22;8767;-85
2021/12/03 23:29:09;;;;;;;;;125.40;124.40;;;;;;;;6383755;22;8782;-84
2021/12/03 23:31:35;;;;;;;;;68.80;61.80;;;;;;;;6384074;22;8740;-86
2021/12/03 23:34:01;;;;;;;;;68.00;60.00;;;;;;;;6384425;22;8809;-86
2021/12/03 23:36:26;;;;;;;;;61.25;54.50;;;;;;;;6383449;22;8772;-86
2021/12/03 23:38:52;;;;;;;;;53.00;46.50;;;;;;;;6384184;22;8747;-86
2021/12/03 23:41:17;;;;;;;;;72.25;62.50;;;;;;;;6355204;22;8748;-85
2021/12/03 23:43:42;;;;;;;;;61.33;52.00;;;;;;;;6384158;22;8802;-84
2021/12/03 23:46:08;;;;;;;;;77.25;68.25;;;;;;;;6384274;22;8799;-85
2021/12/03 23:48:33;;;;;;;;;72.75;62.25;;;;;;;;6355412;22;8763;-85
2021/12/03 23:51:00;;;;;;;;;55.75;47.75;;;;;;;;6383629;22;8802;-86
2021/12/03 23:53:26;;;;;;;;;31.50;30.50;;;;;;;;6383985;22;8763;-86
2021/12/03 23:55:51;;;;;;;;;41.00;37.00;;;;;;;;6383482;22;8736;-86
2021/12/03 23:58:17;;;;;;;;;34.00;31.75;;;;;;;;6355244;22;8764;-84
